AYN7052 UACC-UAAA
Flight info
| Callsign | AYN7052 |
|---|---|
| Flight time | 1h 25m |
| Altitude | 39000 |
| Route | BEDKA T523 KRG W333 ETEDA |
| Aircraft | A20N/M-SDE2E3FGHIRWXY/LB1 |
Departure
| Time | 2026-04-21 14:33 |
|---|---|
| Airport | Nursultan Nazarbayev International Airport (UACC) |
Arrival
| Time | 2026-04-21 15:58 |
|---|---|
| Airport | Almaty International Airport (UAAA) |
| Time | Latitude | Longitude | Altitude | Speed | Heading |
|---|---|---|---|---|---|
| 2026-04-21 14:09 | 51.02389 | 71.45667 | 1175 ft | 0 kts | 40° |
| 2026-04-21 14:23 | 51.02389 | 71.45668 | 1175 ft | 0 kts | 40° |
| 2026-04-21 14:23 | 51.02394 | 71.45676 | 1175 ft | 2 kts | 40° |
| 2026-04-21 14:23 | 51.02412 | 71.45706 | 1175 ft | 4 kts | 85° |
| 2026-04-21 14:24 | 51.02387 | 71.45760 | 1175 ft | 8 kts | 133° |
| 2026-04-21 14:24 | 51.02336 | 71.45840 | 1175 ft | 10 kts | 133° |
| 2026-04-21 14:24 | 51.02299 | 71.45915 | 1175 ft | 7 kts | 99° |
| 2026-04-21 14:24 | 51.02339 | 71.46002 | 1175 ft | 12 kts | 44° |
| 2026-04-21 14:25 | 51.02401 | 71.46102 | 1175 ft | 10 kts | 56° |
| 2026-04-21 14:25 | 51.02368 | 71.46216 | 1175 ft | 13 kts | 134° |
| 2026-04-21 14:25 | 51.02365 | 71.46328 | 1174 ft | 13 kts | 47° |
| 2026-04-21 14:25 | 51.02442 | 71.46447 | 1174 ft | 16 kts | 45° |
| 2026-04-21 14:26 | 51.02534 | 71.46590 | 1175 ft | 19 kts | 44° |
| 2026-04-21 14:26 | 51.02638 | 71.46751 | 1175 ft | 22 kts | 44° |
| 2026-04-21 14:26 | 51.02752 | 71.46929 | 1175 ft | 24 kts | 43° |
| 2026-04-21 14:26 | 51.02875 | 71.47121 | 1174 ft | 25 kts | 44° |
| 2026-04-21 14:27 | 51.03007 | 71.47329 | 1175 ft | 27 kts | 44° |
| 2026-04-21 14:27 | 51.03142 | 71.47540 | 1175 ft | 27 kts | 44° |
| 2026-04-21 14:27 | 51.03274 | 71.47742 | 1175 ft | 25 kts | 44° |
| 2026-04-21 14:27 | 51.03386 | 71.47918 | 1175 ft | 15 kts | 44° |
| 2026-04-21 14:28 | 51.03431 | 71.48046 | 1175 ft | 10 kts | 89° |
| 2026-04-21 14:28 | 51.03431 | 71.48124 | 1175 ft | 3 kts | 89° |
| 2026-04-21 14:28 | 51.03431 | 71.48137 | 1175 ft | 0 kts | 89° |
| 2026-04-21 14:31 | 51.03431 | 71.48138 | 1175 ft | 0 kts | 89° |
| 2026-04-21 14:31 | 51.03432 | 71.48174 | 1174 ft | 6 kts | 89° |
| 2026-04-21 14:32 | 51.03424 | 71.48268 | 1175 ft | 10 kts | 115° |
| 2026-04-21 14:32 | 51.03363 | 71.48334 | 1175 ft | 10 kts | 190° |
| 2026-04-21 14:32 | 51.03308 | 71.48260 | 1175 ft | 12 kts | 224° |
| 2026-04-21 14:32 | 51.03165 | 71.48037 | 1175 ft | 62 kts | 224° |
| 2026-04-21 14:33 | 51.02673 | 71.47270 | 1175 ft | 133 kts | 224° |
| 2026-04-21 14:33 | 51.01886 | 71.46021 | 1372 ft | 172 kts | 224° |
| 2026-04-21 14:33 | 51.01062 | 71.44672 | 2114 ft | 173 kts | 224° |
| 2026-04-21 14:33 | 51.00227 | 71.43335 | 2884 ft | 176 kts | 223° |
| 2026-04-21 14:34 | 50.99314 | 71.41903 | 3420 ft | 192 kts | 223° |
| 2026-04-21 14:34 | 50.98318 | 71.40351 | 3859 ft | 211 kts | 223° |
| 2026-04-21 14:34 | 50.97223 | 71.38641 | 4356 ft | 231 kts | 223° |
| 2026-04-21 14:34 | 50.96040 | 71.36804 | 4902 ft | 249 kts | 223° |
| 2026-04-21 14:35 | 50.94726 | 71.34900 | 5555 ft | 262 kts | 213° |
| 2026-04-21 14:35 | 50.93013 | 71.33918 | 6440 ft | 266 kts | 185° |
| 2026-04-21 14:35 | 50.91192 | 71.34357 | 7341 ft | 272 kts | 158° |
| 2026-04-21 14:35 | 50.89653 | 71.36100 | 8182 ft | 280 kts | 137° |
| 2026-04-21 14:36 | 50.88284 | 71.38324 | 9028 ft | 285 kts | 136° |
| 2026-04-21 14:36 | 50.87029 | 71.40398 | 9757 ft | 289 kts | 136° |
| 2026-04-21 14:36 | 50.85941 | 71.42149 | 10364 ft | 293 kts | 139° |
| 2026-04-21 14:36 | 50.84394 | 71.44349 | 10889 ft | 307 kts | 142° |
| 2026-04-21 14:37 | 50.82719 | 71.46594 | 11345 ft | 322 kts | 142° |
| 2026-04-21 14:37 | 50.80981 | 71.48910 | 12081 ft | 328 kts | 142° |
| 2026-04-21 14:37 | 50.79244 | 71.51229 | 12879 ft | 331 kts | 142° |
| 2026-04-21 14:37 | 50.77493 | 71.53566 | 13633 ft | 335 kts | 142° |
| 2026-04-21 14:38 | 50.75691 | 71.55969 | 14382 ft | 339 kts | 142° |
| 2026-04-21 14:38 | 50.73886 | 71.58373 | 15110 ft | 343 kts | 142° |
| 2026-04-21 14:38 | 50.72074 | 71.60785 | 15816 ft | 347 kts | 142° |
| 2026-04-21 14:38 | 50.70237 | 71.63225 | 16506 ft | 350 kts | 142° |
| 2026-04-21 14:39 | 50.68356 | 71.65719 | 17186 ft | 354 kts | 143° |
| 2026-04-21 14:39 | 50.66468 | 71.68235 | 17847 ft | 357 kts | 143° |
| 2026-04-21 14:39 | 50.64574 | 71.70757 | 18484 ft | 361 kts | 143° |
| 2026-04-21 14:39 | 50.62634 | 71.73333 | 19110 ft | 365 kts | 143° |
| 2026-04-21 14:40 | 50.60715 | 71.75875 | 19709 ft | 368 kts | 143° |
| 2026-04-21 14:40 | 50.58727 | 71.78506 | 20318 ft | 372 kts | 143° |
| 2026-04-21 14:40 | 50.56766 | 71.81094 | 20905 ft | 375 kts | 143° |
| 2026-04-21 14:40 | 50.54759 | 71.83740 | 21489 ft | 379 kts | 143° |
| 2026-04-21 14:41 | 50.52725 | 71.86417 | 22067 ft | 382 kts | 143° |
| 2026-04-21 14:41 | 50.50680 | 71.89107 | 22632 ft | 385 kts | 143° |
| 2026-04-21 14:41 | 50.48639 | 71.91787 | 23182 ft | 389 kts | 143° |
| 2026-04-21 14:41 | 50.46547 | 71.94533 | 23726 ft | 392 kts | 143° |
| 2026-04-21 14:42 | 50.44458 | 71.97269 | 24250 ft | 395 kts | 143° |
| 2026-04-21 14:42 | 50.42332 | 72.00052 | 24765 ft | 399 kts | 144° |
| 2026-04-21 14:42 | 50.40190 | 72.02850 | 25269 ft | 402 kts | 144° |
| 2026-04-21 14:42 | 50.38053 | 72.05640 | 25755 ft | 405 kts | 144° |
| 2026-04-21 14:43 | 50.35878 | 72.08478 | 26233 ft | 408 kts | 144° |
| 2026-04-21 14:43 | 50.33709 | 72.11302 | 26692 ft | 411 kts | 144° |
| 2026-04-21 14:43 | 50.31498 | 72.14178 | 27144 ft | 414 kts | 144° |
| 2026-04-21 14:43 | 50.29285 | 72.17051 | 27577 ft | 417 kts | 144° |
| 2026-04-21 14:44 | 50.27045 | 72.19957 | 27991 ft | 420 kts | 144° |
| 2026-04-21 14:44 | 50.24808 | 72.22897 | 28388 ft | 423 kts | 142° |
| 2026-04-21 14:44 | 50.22674 | 72.26067 | 28764 ft | 428 kts | 137° |
| 2026-04-21 14:44 | 50.20678 | 72.29538 | 29125 ft | 433 kts | 133° |
| 2026-04-21 14:45 | 50.18810 | 72.33316 | 29476 ft | 437 kts | 129° |
| 2026-04-21 14:45 | 50.17021 | 72.37107 | 29814 ft | 440 kts | 129° |
| 2026-04-21 14:45 | 50.15203 | 72.40978 | 30153 ft | 442 kts | 129° |
| 2026-04-21 14:45 | 50.13390 | 72.44829 | 30492 ft | 443 kts | 129° |
| 2026-04-21 14:46 | 50.11577 | 72.48666 | 30799 ft | 445 kts | 129° |
| 2026-04-21 14:46 | 50.09737 | 72.52545 | 31085 ft | 447 kts | 129° |
| 2026-04-21 14:46 | 50.07872 | 72.56467 | 31364 ft | 450 kts | 129° |
| 2026-04-21 14:46 | 50.06017 | 72.60362 | 31640 ft | 451 kts | 129° |
| 2026-04-21 14:47 | 50.04135 | 72.64307 | 31908 ft | 453 kts | 129° |
| 2026-04-21 14:47 | 50.02262 | 72.68233 | 32167 ft | 455 kts | 130° |
| 2026-04-21 14:47 | 50.00377 | 72.72187 | 32419 ft | 457 kts | 130° |
| 2026-04-21 14:47 | 49.98478 | 72.76162 | 32656 ft | 459 kts | 130° |
| 2026-04-21 14:48 | 49.96573 | 72.80138 | 32893 ft | 460 kts | 130° |
| 2026-04-21 14:48 | 49.94660 | 72.84122 | 33187 ft | 460 kts | 130° |
| 2026-04-21 14:48 | 49.92764 | 72.88065 | 33504 ft | 459 kts | 130° |
| 2026-04-21 14:48 | 49.90862 | 72.92007 | 33807 ft | 458 kts | 130° |
| 2026-04-21 14:49 | 49.88941 | 72.95977 | 34100 ft | 457 kts | 130° |
| 2026-04-21 14:49 | 49.87049 | 72.99859 | 34385 ft | 457 kts | 130° |
| 2026-04-21 14:49 | 49.85112 | 73.03830 | 34668 ft | 456 kts | 130° |
| 2026-04-21 14:49 | 49.83214 | 73.07726 | 34935 ft | 456 kts | 130° |
| 2026-04-21 14:50 | 49.81955 | 73.10311 | 35112 ft | 456 kts | 130° |
| 2026-04-21 14:50 | 49.79415 | 73.15530 | 35454 ft | 455 kts | 130° |
| 2026-04-21 14:50 | 49.77521 | 73.19416 | 35701 ft | 455 kts | 130° |
| 2026-04-21 14:50 | 49.75595 | 73.23362 | 35943 ft | 455 kts | 130° |
| 2026-04-21 14:51 | 49.73687 | 73.27205 | 36174 ft | 453 kts | 133° |
| 2026-04-21 14:51 | 49.71588 | 73.30845 | 36405 ft | 450 kts | 139° |
| 2026-04-21 14:51 | 49.69341 | 73.34075 | 36600 ft | 447 kts | 144° |
| 2026-04-21 14:51 | 49.66896 | 73.36977 | 36793 ft | 443 kts | 149° |
| 2026-04-21 14:52 | 49.64299 | 73.39504 | 36984 ft | 440 kts | 155° |
| 2026-04-21 14:52 | 49.61592 | 73.41628 | 37166 ft | 437 kts | 160° |
| 2026-04-21 14:52 | 49.58789 | 73.43407 | 37355 ft | 435 kts | 163° |
| 2026-04-21 14:52 | 49.55984 | 73.45087 | 37534 ft | 435 kts | 163° |
| 2026-04-21 14:53 | 49.53150 | 73.46774 | 37709 ft | 435 kts | 163° |
| 2026-04-21 14:53 | 49.50347 | 73.48445 | 37868 ft | 435 kts | 163° |
| 2026-04-21 14:53 | 49.47526 | 73.50132 | 38029 ft | 435 kts | 163° |
| 2026-04-21 14:53 | 49.44704 | 73.51823 | 38195 ft | 435 kts | 163° |
| 2026-04-21 14:54 | 49.41924 | 73.53490 | 38346 ft | 435 kts | 162° |
| 2026-04-21 14:54 | 49.39115 | 73.55171 | 38500 ft | 435 kts | 163° |
| 2026-04-21 14:54 | 49.36277 | 73.56871 | 38647 ft | 435 kts | 163° |
| 2026-04-21 14:54 | 49.33459 | 73.58556 | 38789 ft | 435 kts | 162° |
| 2026-04-21 14:55 | 49.30645 | 73.60236 | 38867 ft | 436 kts | 162° |
| 2026-04-21 14:55 | 49.25010 | 73.63597 | 38877 ft | 436 kts | 163° |
| 2026-04-21 14:56 | 49.19372 | 73.66962 | 38882 ft | 436 kts | 163° |
| 2026-04-21 14:56 | 49.13771 | 73.70309 | 38882 ft | 436 kts | 163° |
| 2026-04-21 14:57 | 49.08141 | 73.73646 | 38881 ft | 436 kts | 163° |
| 2026-04-21 14:57 | 49.02496 | 73.76975 | 38881 ft | 437 kts | 163° |
| 2026-04-21 14:58 | 48.96827 | 73.80312 | 38881 ft | 438 kts | 163° |
| 2026-04-21 14:58 | 48.91152 | 73.83631 | 38881 ft | 438 kts | 163° |
| 2026-04-21 14:59 | 48.85487 | 73.86926 | 38883 ft | 438 kts | 163° |
| 2026-04-21 14:59 | 48.79801 | 73.90223 | 38882 ft | 438 kts | 163° |
| 2026-04-21 15:00 | 48.74097 | 73.93527 | 38881 ft | 438 kts | 163° |
| 2026-04-21 15:00 | 48.68433 | 73.96802 | 38881 ft | 439 kts | 163° |
| 2026-04-21 15:01 | 48.62728 | 74.00094 | 38882 ft | 439 kts | 163° |
| 2026-04-21 15:01 | 48.57065 | 74.03353 | 38881 ft | 439 kts | 163° |
| 2026-04-21 15:02 | 48.51376 | 74.06622 | 38881 ft | 439 kts | 163° |
| 2026-04-21 15:02 | 48.45678 | 74.09886 | 38883 ft | 439 kts | 163° |
| 2026-04-21 15:03 | 48.39964 | 74.13152 | 38882 ft | 439 kts | 163° |
| 2026-04-21 15:03 | 48.34311 | 74.16376 | 38881 ft | 439 kts | 163° |
| 2026-04-21 15:04 | 48.28596 | 74.19627 | 38881 ft | 439 kts | 163° |
| 2026-04-21 15:04 | 48.22906 | 74.22856 | 38882 ft | 439 kts | 163° |
| 2026-04-21 15:05 | 48.17224 | 74.26073 | 38881 ft | 438 kts | 163° |
| 2026-04-21 15:05 | 48.08675 | 74.30926 | 38882 ft | 438 kts | 163° |
| 2026-04-21 15:06 | 48.03011 | 74.34167 | 38882 ft | 438 kts | 163° |
| 2026-04-21 15:06 | 47.97326 | 74.37411 | 38882 ft | 438 kts | 163° |
| 2026-04-21 15:07 | 47.91649 | 74.40636 | 38882 ft | 438 kts | 163° |
| 2026-04-21 15:07 | 47.85959 | 74.43857 | 38882 ft | 439 kts | 163° |
| 2026-04-21 15:08 | 47.80249 | 74.47076 | 38881 ft | 438 kts | 163° |
| 2026-04-21 15:08 | 47.74573 | 74.50276 | 38882 ft | 438 kts | 163° |
| 2026-04-21 15:09 | 47.68907 | 74.53467 | 38881 ft | 438 kts | 163° |
| 2026-04-21 15:09 | 47.63234 | 74.56657 | 38881 ft | 438 kts | 163° |
| 2026-04-21 15:10 | 47.57525 | 74.59860 | 38881 ft | 438 kts | 163° |
| 2026-04-21 15:10 | 47.51848 | 74.63039 | 38881 ft | 438 kts | 163° |
| 2026-04-21 15:11 | 47.46167 | 74.66234 | 38880 ft | 438 kts | 163° |
| 2026-04-21 15:11 | 47.40514 | 74.69434 | 38881 ft | 437 kts | 163° |
| 2026-04-21 15:12 | 47.34845 | 74.72622 | 38881 ft | 438 kts | 164° |
| 2026-04-21 15:12 | 47.29179 | 74.75790 | 38881 ft | 438 kts | 164° |
| 2026-04-21 15:13 | 47.23490 | 74.78962 | 38882 ft | 437 kts | 163° |
| 2026-04-21 15:13 | 47.17830 | 74.82110 | 38883 ft | 437 kts | 164° |
| 2026-04-21 15:14 | 47.12154 | 74.85257 | 38881 ft | 437 kts | 164° |
| 2026-04-21 15:14 | 47.06478 | 74.88397 | 38883 ft | 437 kts | 163° |
| 2026-04-21 15:15 | 47.00813 | 74.91523 | 38880 ft | 437 kts | 163° |
| 2026-04-21 15:15 | 46.95144 | 74.94644 | 38879 ft | 439 kts | 163° |
| 2026-04-21 15:16 | 46.89428 | 74.97787 | 38881 ft | 441 kts | 163° |
| 2026-04-21 15:16 | 46.83735 | 75.01307 | 38883 ft | 444 kts | 160° |
| 2026-04-21 15:17 | 46.78116 | 75.04868 | 38882 ft | 444 kts | 160° |
| 2026-04-21 15:17 | 46.72446 | 75.08458 | 38881 ft | 444 kts | 160° |
| 2026-04-21 15:18 | 46.66794 | 75.12030 | 38883 ft | 444 kts | 160° |
| 2026-04-21 15:18 | 46.61146 | 75.15592 | 38893 ft | 444 kts | 160° |
| 2026-04-21 15:19 | 46.55489 | 75.19151 | 38908 ft | 444 kts | 160° |
| 2026-04-21 15:19 | 46.49839 | 75.22697 | 38922 ft | 444 kts | 160° |
| 2026-04-21 15:20 | 46.44157 | 75.26256 | 38931 ft | 444 kts | 160° |
| 2026-04-21 15:20 | 46.38503 | 75.29788 | 38934 ft | 443 kts | 160° |
| 2026-04-21 15:21 | 46.32882 | 75.33294 | 38934 ft | 444 kts | 160° |
| 2026-04-21 15:21 | 46.27203 | 75.36826 | 38935 ft | 444 kts | 160° |
| 2026-04-21 15:22 | 46.21554 | 75.40332 | 38936 ft | 444 kts | 160° |
| 2026-04-21 15:22 | 46.15913 | 75.43852 | 38939 ft | 444 kts | 160° |
| 2026-04-21 15:23 | 46.10239 | 75.47392 | 38942 ft | 443 kts | 160° |
| 2026-04-21 15:23 | 46.04617 | 75.50889 | 38946 ft | 444 kts | 160° |
| 2026-04-21 15:24 | 45.98953 | 75.54404 | 38950 ft | 444 kts | 160° |
| 2026-04-21 15:24 | 45.93292 | 75.57909 | 38954 ft | 443 kts | 160° |
| 2026-04-21 15:25 | 45.87667 | 75.61379 | 38956 ft | 443 kts | 160° |
| 2026-04-21 15:25 | 45.81993 | 75.64864 | 38961 ft | 443 kts | 160° |
| 2026-04-21 15:26 | 45.76345 | 75.68358 | 38961 ft | 443 kts | 161° |
| 2026-04-21 15:26 | 45.70723 | 75.71819 | 38962 ft | 442 kts | 161° |
| 2026-04-21 15:27 | 45.64970 | 75.74786 | 38962 ft | 438 kts | 169° |
| 2026-04-21 15:27 | 45.59119 | 75.77042 | 38962 ft | 438 kts | 169° |
| 2026-04-21 15:28 | 45.53235 | 75.79302 | 38963 ft | 439 kts | 169° |
| 2026-04-21 15:28 | 45.47374 | 75.81576 | 38961 ft | 438 kts | 169° |
| 2026-04-21 15:29 | 45.41515 | 75.83855 | 38962 ft | 438 kts | 169° |
| 2026-04-21 15:29 | 45.35624 | 75.86146 | 38962 ft | 438 kts | 169° |
| 2026-04-21 15:30 | 45.29767 | 75.88420 | 38962 ft | 438 kts | 169° |
| 2026-04-21 15:30 | 45.23914 | 75.90688 | 38962 ft | 438 kts | 169° |
| 2026-04-21 15:31 | 45.18033 | 75.92962 | 38733 ft | 438 kts | 169° |
| 2026-04-21 15:31 | 45.15105 | 75.94094 | 38428 ft | 436 kts | 169° |
| 2026-04-21 15:31 | 45.12177 | 75.95225 | 38014 ft | 433 kts | 169° |
| 2026-04-21 15:32 | 45.09282 | 75.96341 | 37499 ft | 433 kts | 169° |
| 2026-04-21 15:32 | 45.06375 | 75.97459 | 36956 ft | 433 kts | 169° |
| 2026-04-21 15:32 | 45.03502 | 75.98563 | 36390 ft | 434 kts | 169° |
| 2026-04-21 15:32 | 45.00585 | 75.99685 | 35774 ft | 435 kts | 169° |
| 2026-04-21 15:33 | 44.97656 | 76.00809 | 35142 ft | 437 kts | 169° |
| 2026-04-21 15:33 | 44.94732 | 76.01930 | 34500 ft | 438 kts | 168° |
| 2026-04-21 15:33 | 44.91778 | 76.03062 | 33861 ft | 439 kts | 168° |
| 2026-04-21 15:33 | 44.88856 | 76.04179 | 33215 ft | 441 kts | 168° |
| 2026-04-21 15:34 | 44.85894 | 76.05306 | 32534 ft | 442 kts | 168° |
| 2026-04-21 15:34 | 44.82877 | 76.06452 | 31849 ft | 444 kts | 168° |
| 2026-04-21 15:34 | 44.79922 | 76.07574 | 31174 ft | 445 kts | 168° |
| 2026-04-21 15:34 | 44.76920 | 76.08716 | 30621 ft | 442 kts | 168° |
| 2026-04-21 15:35 | 44.74008 | 76.09823 | 30180 ft | 438 kts | 168° |
| 2026-04-21 15:35 | 44.71074 | 76.10939 | 29725 ft | 433 kts | 168° |
| 2026-04-21 15:35 | 44.68167 | 76.12044 | 29268 ft | 429 kts | 168° |
| 2026-04-21 15:35 | 44.65322 | 76.13123 | 28815 ft | 426 kts | 168° |
| 2026-04-21 15:36 | 44.62468 | 76.14204 | 28360 ft | 422 kts | 168° |
| 2026-04-21 15:36 | 44.59629 | 76.15279 | 27908 ft | 419 kts | 168° |
| 2026-04-21 15:36 | 44.56836 | 76.16336 | 27463 ft | 415 kts | 168° |
| 2026-04-21 15:36 | 44.54092 | 76.17373 | 27026 ft | 412 kts | 168° |
| 2026-04-21 15:37 | 44.51317 | 76.18420 | 26584 ft | 409 kts | 168° |
| 2026-04-21 15:37 | 44.48603 | 76.19443 | 26146 ft | 406 kts | 168° |
| 2026-04-21 15:37 | 44.45874 | 76.20470 | 25709 ft | 403 kts | 168° |
| 2026-04-21 15:37 | 44.43190 | 76.21480 | 25275 ft | 400 kts | 168° |
| 2026-04-21 15:38 | 44.40549 | 76.22472 | 24842 ft | 397 kts | 168° |
| 2026-04-21 15:38 | 44.37873 | 76.23477 | 24403 ft | 395 kts | 167° |
| 2026-04-21 15:38 | 44.35238 | 76.24465 | 23970 ft | 392 kts | 167° |
| 2026-04-21 15:38 | 44.32638 | 76.25440 | 23542 ft | 389 kts | 167° |
| 2026-04-21 15:39 | 44.30027 | 76.26417 | 23113 ft | 387 kts | 167° |
| 2026-04-21 15:39 | 44.27436 | 76.27387 | 22682 ft | 384 kts | 167° |
| 2026-04-21 15:39 | 44.24863 | 76.28348 | 22256 ft | 382 kts | 167° |
| 2026-04-21 15:39 | 44.22331 | 76.29295 | 21834 ft | 380 kts | 167° |
| 2026-04-21 15:40 | 44.19806 | 76.30236 | 21412 ft | 377 kts | 167° |
| 2026-04-21 15:40 | 44.17275 | 76.31179 | 20990 ft | 375 kts | 167° |
| 2026-04-21 15:40 | 44.14747 | 76.32121 | 20564 ft | 373 kts | 167° |
| 2026-04-21 15:40 | 44.12255 | 76.33048 | 20144 ft | 371 kts | 167° |
| 2026-04-21 15:41 | 44.09783 | 76.33968 | 19727 ft | 368 kts | 167° |
| 2026-04-21 15:41 | 44.07323 | 76.34881 | 19312 ft | 366 kts | 167° |
| 2026-04-21 15:41 | 44.04881 | 76.35787 | 18899 ft | 364 kts | 167° |
| 2026-04-21 15:41 | 44.02444 | 76.36691 | 18484 ft | 362 kts | 167° |
| 2026-04-21 15:42 | 44.00025 | 76.37588 | 18073 ft | 359 kts | 167° |
| 2026-04-21 15:42 | 43.97648 | 76.38467 | 17667 ft | 357 kts | 167° |
| 2026-04-21 15:42 | 43.95233 | 76.39361 | 17256 ft | 355 kts | 167° |
| 2026-04-21 15:42 | 43.92873 | 76.40233 | 16853 ft | 353 kts | 167° |
| 2026-04-21 15:43 | 43.90495 | 76.41112 | 16446 ft | 351 kts | 166° |
| 2026-04-21 15:43 | 43.88169 | 76.41968 | 16046 ft | 349 kts | 167° |
| 2026-04-21 15:43 | 43.85856 | 76.42817 | 15648 ft | 346 kts | 166° |
| 2026-04-21 15:43 | 43.83525 | 76.43671 | 15250 ft | 344 kts | 166° |
| 2026-04-21 15:44 | 43.81222 | 76.44518 | 14853 ft | 342 kts | 166° |
| 2026-04-21 15:44 | 43.78942 | 76.45355 | 14460 ft | 340 kts | 166° |
| 2026-04-21 15:44 | 43.76650 | 76.46197 | 14065 ft | 338 kts | 166° |
| 2026-04-21 15:44 | 43.74412 | 76.47018 | 13678 ft | 336 kts | 166° |
| 2026-04-21 15:45 | 43.72150 | 76.47848 | 13287 ft | 334 kts | 166° |
| 2026-04-21 15:45 | 43.69924 | 76.48665 | 12901 ft | 332 kts | 166° |
| 2026-04-21 15:45 | 43.67706 | 76.49477 | 12516 ft | 330 kts | 166° |
| 2026-04-21 15:45 | 43.65501 | 76.50285 | 12137 ft | 327 kts | 166° |
| 2026-04-21 15:46 | 43.63318 | 76.51083 | 11757 ft | 325 kts | 166° |
| 2026-04-21 15:46 | 43.61147 | 76.51878 | 11382 ft | 323 kts | 166° |
| 2026-04-21 15:46 | 43.58980 | 76.52670 | 11005 ft | 321 kts | 166° |
| 2026-04-21 15:46 | 43.56838 | 76.53451 | 10633 ft | 319 kts | 166° |
| 2026-04-21 15:47 | 43.54679 | 76.54240 | 10255 ft | 317 kts | 166° |
| 2026-04-21 15:47 | 43.52569 | 76.55009 | 10045 ft | 307 kts | 166° |
| 2026-04-21 15:47 | 43.50575 | 76.55737 | 10004 ft | 293 kts | 166° |
| 2026-04-21 15:47 | 43.48631 | 76.56445 | 9738 ft | 288 kts | 166° |
| 2026-04-21 15:48 | 43.46677 | 76.57155 | 9406 ft | 286 kts | 166° |
| 2026-04-21 15:48 | 43.44777 | 76.57845 | 9089 ft | 283 kts | 166° |
| 2026-04-21 15:48 | 43.42878 | 76.58534 | 8776 ft | 280 kts | 166° |
| 2026-04-21 15:48 | 43.41007 | 76.59213 | 8468 ft | 277 kts | 166° |
| 2026-04-21 15:49 | 43.39150 | 76.59886 | 8164 ft | 275 kts | 166° |
| 2026-04-21 15:49 | 43.37319 | 76.60551 | 7864 ft | 272 kts | 166° |
| 2026-04-21 15:49 | 43.35506 | 76.61208 | 7567 ft | 269 kts | 166° |
| 2026-04-21 15:49 | 43.33698 | 76.61862 | 7272 ft | 266 kts | 166° |
| 2026-04-21 15:50 | 43.31916 | 76.62507 | 7008 ft | 262 kts | 166° |
| 2026-04-21 15:50 | 43.30183 | 76.63134 | 6846 ft | 253 kts | 166° |
| 2026-04-21 15:50 | 43.28533 | 76.63731 | 6807 ft | 242 kts | 165° |
| 2026-04-21 15:50 | 43.27003 | 76.64702 | 6521 ft | 244 kts | 139° |
| 2026-04-21 15:51 | 43.26041 | 76.66572 | 6242 ft | 245 kts | 110° |
| 2026-04-21 15:51 | 43.25626 | 76.68822 | 6006 ft | 242 kts | 103° |
| 2026-04-21 15:51 | 43.25291 | 76.71074 | 5757 ft | 241 kts | 103° |
| 2026-04-21 15:51 | 43.25115 | 76.72244 | 5627 ft | 240 kts | 103° |
| 2026-04-21 15:53 | 43.25043 | 76.72716 | 5574 ft | 239 kts | 103° |
| 2026-04-21 15:53 | 43.24699 | 76.74910 | 5325 ft | 236 kts | 104° |
| 2026-04-21 15:53 | 43.24348 | 76.77080 | 5190 ft | 229 kts | 104° |
| 2026-04-21 15:54 | 43.24000 | 76.79209 | 5177 ft | 231 kts | 102° |
| 2026-04-21 15:54 | 43.24072 | 76.81425 | 4963 ft | 235 kts | 71° |
| 2026-04-21 15:54 | 43.24834 | 76.83349 | 4805 ft | 228 kts | 55° |
| 2026-04-21 15:54 | 43.25766 | 76.85018 | 4774 ft | 216 kts | 53° |
| 2026-04-21 15:55 | 43.26647 | 76.86622 | 4831 ft | 201 kts | 55° |
| 2026-04-21 15:55 | 43.27432 | 76.88143 | 4578 ft | 190 kts | 57° |
| 2026-04-21 15:55 | 43.28156 | 76.89607 | 4330 ft | 178 kts | 58° |
| 2026-04-21 15:55 | 43.28819 | 76.90964 | 4092 ft | 165 kts | 58° |
| 2026-04-21 15:56 | 43.29433 | 76.92219 | 3850 ft | 152 kts | 58° |
| 2026-04-21 15:56 | 43.30006 | 76.93386 | 3633 ft | 147 kts | 58° |
| 2026-04-21 15:56 | 43.30574 | 76.94549 | 3459 ft | 147 kts | 58° |
| 2026-04-21 15:56 | 43.31145 | 76.95715 | 3281 ft | 146 kts | 58° |
| 2026-04-21 15:57 | 43.31717 | 76.96877 | 3095 ft | 145 kts | 58° |
| 2026-04-21 15:57 | 43.32281 | 76.98014 | 2909 ft | 145 kts | 58° |
| 2026-04-21 15:57 | 43.32849 | 76.99164 | 2710 ft | 144 kts | 58° |
| 2026-04-21 15:57 | 43.33410 | 77.00302 | 2522 ft | 143 kts | 58° |
| 2026-04-21 15:58 | 43.33969 | 77.01434 | 2342 ft | 143 kts | 58° |
| 2026-04-21 15:58 | 43.34514 | 77.02531 | 2241 ft | 130 kts | 57° |
| 2026-04-21 15:58 | 43.34937 | 77.03402 | 2240 ft | 77 kts | 55° |
| 2026-04-21 15:58 | 43.35145 | 77.03790 | 2240 ft | 36 kts | 48° |
| 2026-04-21 15:59 | 43.35313 | 77.03961 | 2240 ft | 21 kts | 26° |
| 2026-04-21 15:59 | 43.35413 | 77.04014 | 2240 ft | 11 kts | 352° |
| 2026-04-21 15:59 | 43.35437 | 77.03938 | 2240 ft | 10 kts | 245° |
| 2026-04-21 15:59 | 43.35395 | 77.03853 | 2240 ft | 11 kts | 234° |
| 2026-04-21 16:00 | 43.35349 | 77.03764 | 2240 ft | 11 kts | 236° |
| 2026-04-21 16:00 | 43.35298 | 77.03661 | 2240 ft | 14 kts | 236° |
| 2026-04-21 16:00 | 43.35235 | 77.03535 | 2240 ft | 17 kts | 235° |
| 2026-04-21 16:00 | 43.35164 | 77.03392 | 2240 ft | 19 kts | 235° |
| 2026-04-21 16:01 | 43.35084 | 77.03230 | 2240 ft | 21 kts | 237° |
| 2026-04-21 16:01 | 43.34999 | 77.03055 | 2240 ft | 22 kts | 236° |
| 2026-04-21 16:01 | 43.34907 | 77.02870 | 2240 ft | 24 kts | 235° |
| 2026-04-21 16:01 | 43.34814 | 77.02684 | 2240 ft | 14 kts | 238° |
| 2026-04-21 16:02 | 43.34779 | 77.02557 | 2240 ft | 13 kts | 261° |
| 2026-04-21 16:02 | 43.34814 | 77.02454 | 2240 ft | 12 kts | 317° |
| 2026-04-21 16:02 | 43.34881 | 77.02372 | 2240 ft | 13 kts | 319° |
| 2026-04-21 16:02 | 43.34952 | 77.02289 | 2240 ft | 13 kts | 319° |
| 2026-04-21 16:03 | 43.35015 | 77.02203 | 2240 ft | 10 kts | 287° |
| 2026-04-21 16:03 | 43.35020 | 77.02103 | 2240 ft | 11 kts | 272° |
| 2026-04-21 16:03 | 43.35024 | 77.01994 | 2240 ft | 11 kts | 274° |
| 2026-04-21 16:03 | 43.35032 | 77.01885 | 2240 ft | 9 kts | 292° |
| 2026-04-21 16:04 | 43.35083 | 77.01859 | 2240 ft | 8 kts | 5° |
| 2026-04-21 16:04 | 43.35122 | 77.01862 | 2240 ft | 0 kts | 3° |